sensor_id;sensor_type;location;lat;lon;timestamp;pressure;altitude;pressure_sealevel;temperature;humidity
21960;BME280;11144;43.030;25.108;2022-12-07T00:01:06;99378.53;;;6.61;100.00
21960;BME280;11144;43.030;25.108;2022-12-07T00:02:39;99367.94;;;6.67;100.00
21960;BME280;11144;43.030;25.108;2022-12-07T00:04:15;99378.44;;;6.67;100.00
21960;BME280;11144;43.030;25.108;2022-12-07T00:05:49;99382.03;;;6.63;100.00
21960;BME280;11144;43.030;25.108;2022-12-07T00:07:22;99357.81;;;6.48;100.00
21960;BME280;11144;43.030;25.108;2022-12-07T00:09:00;99373.41;;;6.57;100.00
21960;BME280;11144;43.030;25.108;2022-12-07T00:10:34;99376.00;;;6.58;100.00
21960;BME280;11144;43.030;25.108;2022-12-07T00:12:08;99385.59;;;6.59;100.00
21960;BME280;11144;43.030;25.108;2022-12-07T00:13:41;99382.97;;;6.59;100.00
21960;BME280;11144;43.030;25.108;2022-12-07T00:15:21;99382.84;;;6.65;100.00
21960;BME280;11144;43.030;25.108;2022-12-07T00:16:54;99396.78;;;6.70;100.00
21960;BME280;11144;43.030;25.108;2022-12-07T00:18:29;99394.16;;;6.70;100.00
21960;BME280;11144;43.030;25.108;2022-12-07T00:20:03;99396.72;;;6.73;100.00
21960;BME280;11144;43.030;25.108;2022-12-07T00:21:36;99394.00;;;6.76;100.00
21960;BME280;11144;43.030;25.108;2022-12-07T00:23:10;99403.66;;;6.77;100.00
21960;BME280;11144;43.030;25.108;2022-12-07T00:24:45;99404.53;;;6.75;100.00
21960;BME280;11144;43.030;25.108;2022-12-07T00:26:21;99397.56;;;6.74;100.00
21960;BME280;11144;43.030;25.108;2022-12-07T00:27:56;99379.25;;;6.69;100.00
21960;BME280;11144;43.030;25.108;2022-12-07T00:29:29;99399.34;;;6.73;100.00
21960;BME280;11144;43.030;25.108;2022-12-07T00:31:04;99393.19;;;6.74;100.00
21960;BME280;11144;43.030;25.108;2022-12-07T00:32:37;99387.88;;;6.77;100.00
21960;BME280;11144;43.030;25.108;2022-12-07T00:34:13;99387.75;;;6.83;100.00
21960;BME280;11144;43.030;25.108;2022-12-07T00:35:55;99382.63;;;6.77;100.00
21960;BME280;11144;43.030;25.108;2022-12-07T00:37:28;99379.03;;;6.81;100.00
21960;BME280;11144;43.030;25.108;2022-12-07T00:39:02;99375.44;;;6.85;100.00
21960;BME280;11144;43.030;25.108;2022-12-07T00:40:37;99384.28;;;6.81;100.00
21960;BME280;11144;43.030;25.108;2022-12-07T00:42:11;99380.81;;;6.79;100.00
21960;BME280;11144;43.030;25.108;2022-12-07T00:43:45;99373.94;;;6.72;100.00
21960;BME280;11144;43.030;25.108;2022-12-07T00:45:18;99380.97;;;6.73;100.00
21960;BME280;11144;43.030;25.108;2022-12-07T00:46:52;99393.19;;;6.74;100.00
21960;BME280;11144;43.030;25.108;2022-12-07T00:48:26;99382.69;;;6.74;100.00
21960;BME280;11144;43.030;25.108;2022-12-07T00:49:59;99378.19;;;6.79;100.00
21960;BME280;11144;43.030;25.108;2022-12-07T00:51:33;99376.47;;;6.78;100.00
21960;BME280;11144;43.030;25.108;2022-12-07T00:53:07;99378.13;;;6.82;100.00
21960;BME280;11144;43.030;25.108;2022-12-07T00:54:41;99370.25;;;6.82;100.00
21960;BME280;11144;43.030;25.108;2022-12-07T00:56:18;99377.22;;;6.83;100.00
21960;BME280;11144;43.030;25.108;2022-12-07T00:57:52;99373.78;;;6.81;100.00
21960;BME280;11144;43.030;25.108;2022-12-07T00:59:25;99372.03;;;6.80;100.00
21960;BME280;11144;43.030;25.108;2022-12-07T01:01:00;99361.53;;;6.80;100.00
21960;BME280;11144;43.030;25.108;2022-12-07T01:02:34;99370.25;;;6.82;100.00
21960;BME280;11144;43.030;25.108;2022-12-07T01:04:07;99365.88;;;6.83;100.00
21960;BME280;11144;43.030;25.108;2022-12-07T01:05:49;99361.50;;;6.82;100.00
21960;BME280;11144;43.030;25.108;2022-12-07T01:07:23;99364.06;;;6.85;100.00
21960;BME280;11144;43.030;25.108;2022-12-07T01:08:56;99362.25;;;6.88;100.00
21960;BME280;11144;43.030;25.108;2022-12-07T01:10:30;99354.38;;;6.88;100.00
21960;BME280;11144;43.030;25.108;2022-12-07T01:12:05;99353.44;;;6.91;100.00
21960;BME280;11144;43.030;25.108;2022-12-07T01:13:39;99358.66;;;6.92;100.00
21960;BME280;11144;43.030;25.108;2022-12-07T01:15:12;99349.88;;;6.93;100.00
21960;BME280;11144;43.030;25.108;2022-12-07T01:16:46;99349.19;;;6.85;100.00
21960;BME280;11144;43.030;25.108;2022-12-07T01:18:19;99354.44;;;6.85;100.00
21960;BME280;11144;43.030;25.108;2022-12-07T01:19:52;99345.75;;;6.80;100.00
21960;BME280;11144;43.030;25.108;2022-12-07T01:21:27;99350.25;;;6.75;100.00
21960;BME280;11144;43.030;25.108;2022-12-07T01:23:02;99362.47;;;6.76;100.00
21960;BME280;11144;43.030;25.108;2022-12-07T01:24:38;99354.59;;;6.76;100.00
21960;BME280;11144;43.030;25.108;2022-12-07T01:26:13;99342.31;;;6.78;100.00
21960;BME280;11144;43.030;25.108;2022-12-07T01:27:48;99348.34;;;6.82;100.00
21960;BME280;11144;43.030;25.108;2022-12-07T01:29:22;99343.22;;;6.77;100.00
21960;BME280;11144;43.030;25.108;2022-12-07T01:31:00;99344.03;;;6.79;100.00
21960;BME280;11144;43.030;25.108;2022-12-07T01:32:34;99339.59;;;6.83;100.00
21960;BME280;11144;43.030;25.108;2022-12-07T01:34:08;99341.22;;;6.88;100.00
21960;BME280;11144;43.030;25.108;2022-12-07T01:35:46;99334.09;;;6.93;100.00
21960;BME280;11144;43.030;25.108;2022-12-07T01:37:19;99336.78;;;6.90;100.00
21960;BME280;11144;43.030;25.108;2022-12-07T01:38:55;99329.81;;;6.89;100.00
21960;BME280;11144;43.030;25.108;2022-12-07T01:40:29;99321.84;;;6.94;100.00
21960;BME280;11144;43.030;25.108;2022-12-07T01:42:03;99322.63;;;6.97;100.00
21960;BME280;11144;43.030;25.108;2022-12-07T01:44:12;99320.75;;;7.02;100.00
21960;BME280;11144;43.030;25.108;2022-12-07T01:45:46;99304.47;;;6.87;100.00
21960;BME280;11144;43.030;25.108;2022-12-07T01:47:20;99320.97;;;6.93;100.00
21960;BME280;11144;43.030;25.108;2022-12-07T01:48:54;99322.69;;;6.94;100.00
21960;BME280;11144;43.030;25.108;2022-12-07T01:50:28;99328.00;;;6.91;100.00
21960;BME280;11144;43.030;25.108;2022-12-07T01:52:13;99321.88;;;6.92;100.00
21960;BME280;11144;43.030;25.108;2022-12-07T01:53:48;99313.94;;;6.95;100.00
21960;BME280;11144;43.030;25.108;2022-12-07T01:55:20;99313.84;;;6.98;100.00
21960;BME280;11144;43.030;25.108;2022-12-07T01:56:54;99319.09;;;6.98;100.00
21960;BME280;11144;43.030;25.108;2022-12-07T01:58:31;99322.63;;;6.97;100.00
21960;BME280;11144;43.030;25.108;2022-12-07T02:00:08;99317.31;;;7.00;100.00
21960;BME280;11144;43.030;25.108;2022-12-07T02:01:45;99322.50;;;7.03;100.00
21960;BME280;11144;43.030;25.108;2022-12-07T02:03:24;99294.81;;;6.87;100.00
21960;BME280;11144;43.030;25.108;2022-12-07T02:05:00;99330.50;;;6.97;100.00
21960;BME280;11144;43.030;25.108;2022-12-07T02:06:35;99326.09;;;6.99;100.00
21960;BME280;11144;43.030;25.108;2022-12-07T02:08:09;99321.69;;;7.00;100.00
21960;BME280;11144;43.030;25.108;2022-12-07T02:09:44;99318.13;;;7.02;100.00
21960;BME280;11144;43.030;25.108;2022-12-07T02:11:18;99316.44;;;7.00;100.00
21960;BME280;11144;43.030;25.108;2022-12-07T02:12:55;99303.19;;;7.04;100.00
21960;BME280;11144;43.030;25.108;2022-12-07T02:14:30;99306.72;;;7.03;100.00
21960;BME280;11144;43.030;25.108;2022-12-07T02:16:17;99304.91;;;7.05;100.00
21960;BME280;11144;43.030;25.108;2022-12-07T02:18:00;99308.56;;;6.98;100.00
21960;BME280;11144;43.030;25.108;2022-12-07T02:20:08;99297.22;;;6.98;100.00
21960;BME280;11144;43.030;25.108;2022-12-07T02:21:46;99306.91;;;6.94;100.00
21960;BME280;11144;43.030;25.108;2022-12-07T02:23:40;99290.53;;;6.82;100.00
21960;BME280;11144;43.030;25.108;2022-12-07T02:25:21;99298.66;;;6.71;100.00
21960;BME280;11144;43.030;25.108;2022-12-07T02:27:17;99302.31;;;6.64;100.00
21960;BME280;11144;43.030;25.108;2022-12-07T02:29:12;99296.34;;;6.56;100.00
21960;BME280;11144;43.030;25.108;2022-12-07T02:30:48;99304.19;;;6.59;100.00
21960;BME280;11144;43.030;25.108;2022-12-07T02:32:24;99317.25;;;6.62;100.00
21960;BME280;11144;43.030;25.108;2022-12-07T02:34:05;99303.22;;;6.63;100.00
21960;BME280;11144;43.030;25.108;2022-12-07T02:35:42;99305.84;;;6.63;100.00
21960;BME280;11144;43.030;25.108;2022-12-07T02:37:34;99305.84;;;6.63;100.00
21960;BME280;11144;43.030;25.108;2022-12-07T02:39:16;99308.31;;;6.69;100.00
21960;BME280;11144;43.030;25.108;2022-12-07T02:40:53;99310.94;;;6.69;100.00
21960;BME280;11144;43.030;25.108;2022-12-07T02:42:32;99311.84;;;6.68;100.00
21960;BME280;11144;43.030;25.108;2022-12-07T02:44:12;99298.72;;;6.68;100.00
21960;BME280;11144;43.030;25.108;2022-12-07T02:45:47;99300.44;;;6.69;100.00
21960;BME280;11144;43.030;25.108;2022-12-07T02:47:24;99309.28;;;6.65;100.00
21960;BME280;11144;43.030;25.108;2022-12-07T02:48:57;99302.38;;;6.61;100.00
21960;BME280;11144;43.030;25.108;2022-12-07T02:50:32;99308.63;;;6.54;100.00
21960;BME280;11144;43.030;25.108;2022-12-07T02:52:06;99302.56;;;6.52;100.00
21960;BME280;11144;43.030;25.108;2022-12-07T02:53:42;99302.69;;;6.46;100.00
21960;BME280;11144;43.030;25.108;2022-12-07T02:55:19;99306.22;;;6.45;100.00
21960;BME280;11144;43.030;25.108;2022-12-07T02:57:02;99307.94;;;6.46;100.00
21960;BME280;11144;43.030;25.108;2022-12-07T02:58:47;99304.38;;;6.49;100.00
21960;BME280;11144;43.030;25.108;2022-12-07T03:00:25;99298.25;;;6.50;100.00
21960;BME280;11144;43.030;25.108;2022-12-07T03:02:07;99300.91;;;6.48;100.00
21960;BME280;11144;43.030;25.108;2022-12-07T03:03:49;99302.56;;;6.52;100.00
21960;BME280;11144;43.030;25.108;2022-12-07T03:05:46;99305.03;;;6.60;100.00
21960;BME280;11144;43.030;25.108;2022-12-07T03:07:28;99304.13;;;6.62;100.00
21960;BME280;11144;43.030;25.108;2022-12-07T03:09:13;99302.31;;;6.64;100.00
21960;BME280;11144;43.030;25.108;2022-12-07T03:10:54;99300.72;;;6.57;100.00
21960;BME280;11144;43.030;25.108;2022-12-07T03:12:32;99297.25;;;6.55;100.00
21960;BME280;11144;43.030;25.108;2022-12-07T03:14:13;99303.50;;;6.50;100.00
21960;BME280;11144;43.030;25.108;2022-12-07T03:15:58;99290.50;;;6.42;100.00
21960;BME280;11144;43.030;25.108;2022-12-07T03:17:37;99297.44;;;6.46;100.00
21960;BME280;11144;43.030;25.108;2022-12-07T03:19:15;99293.94;;;6.47;100.00
21960;BME280;11144;43.030;25.108;2022-12-07T03:20:53;99298.25;;;6.50;100.00
21960;BME280;11144;43.030;25.108;2022-12-07T03:22:30;99292.97;;;6.51;100.00
21960;BME280;11144;43.030;25.108;2022-12-07T03:24:09;99299.03;;;6.53;100.00
21960;BME280;11144;43.030;25.108;2022-12-07T03:25:47;99301.63;;;6.55;100.00
21960;BME280;11144;43.030;25.108;2022-12-07T03:27:34;99305.91;;;6.60;100.00
21960;BME280;11144;43.030;25.108;2022-12-07T03:29:15;99305.91;;;6.60;100.00
21960;BME280;11144;43.030;25.108;2022-12-07T03:30:55;99304.13;;;6.62;100.00
21960;BME280;11144;43.030;25.108;2022-12-07T03:32:34;99310.16;;;6.66;100.00
21960;BME280;11144;43.030;25.108;2022-12-07T03:34:14;99298.03;;;6.60;100.00
21960;BME280;11144;43.030;25.108;2022-12-07T03:35:57;99303.22;;;6.63;100.00
21960;BME280;11144;43.030;25.108;2022-12-07T03:37:38;99298.88;;;6.62;100.00
21960;BME280;11144;43.030;25.108;2022-12-07T03:39:21;99300.72;;;6.56;100.00
21960;BME280;11144;43.030;25.108;2022-12-07T03:41:01;99301.59;;;6.56;100.00
21960;BME280;11144;43.030;25.108;2022-12-07T03:42:35;99306.00;;;6.54;100.00
21960;BME280;11144;43.030;25.108;2022-12-07T03:44:09;99307.72;;;6.58;100.00
21960;BME280;11144;43.030;25.108;2022-12-07T03:45:44;99296.38;;;6.55;100.00
21960;BME280;11144;43.030;25.108;2022-12-07T03:47:29;99300.66;;;6.60;100.00
21960;BME280;11144;43.030;25.108;2022-12-07T03:49:09;99295.44;;;6.57;100.00
21960;BME280;11144;43.030;25.108;2022-12-07T03:50:49;99295.38;;;6.62;100.00
21960;BME280;11144;43.030;25.108;2022-12-07T03:52:30;99295.34;;;6.63;100.00
21960;BME280;11144;43.030;25.108;2022-12-07T03:54:09;99301.41;;;6.65;100.00
21960;BME280;11144;43.030;25.108;2022-12-07T03:55:46;99290.34;;;6.51;100.00
21960;BME280;11144;43.030;25.108;2022-12-07T03:57:21;99300.53;;;6.66;100.00
21960;BME280;11144;43.030;25.108;2022-12-07T03:58:56;99297.03;;;6.66;100.00
21960;BME280;11144;43.030;25.108;2022-12-07T04:00:28;99301.41;;;6.65;100.00
21960;BME280;11144;43.030;25.108;2022-12-07T04:02:04;99299.63;;;6.67;100.00
21960;BME280;11144;43.030;25.108;2022-12-07T04:03:40;99303.97;;;6.68;100.00
21960;BME280;11144;43.030;25.108;2022-12-07T04:05:13;99295.34;;;6.63;100.00
21960;BME280;11144;43.030;25.108;2022-12-07T04:06:47;99300.59;;;6.63;100.00
21960;BME280;11144;43.030;25.108;2022-12-07T04:08:20;99298.00;;;6.62;100.00
21960;BME280;11144;43.030;25.108;2022-12-07T04:09:54;99293.69;;;6.59;100.00
21960;BME280;11144;43.030;25.108;2022-12-07T04:11:29;99292.72;;;6.63;100.00
21960;BME280;11144;43.030;25.108;2022-12-07T04:13:01;99303.97;;;6.68;100.00
21960;BME280;11144;43.030;25.108;2022-12-07T04:14:36;99295.28;;;6.66;100.00
21960;BME280;11144;43.030;25.108;2022-12-07T04:16:08;99288.25;;;6.67;100.00
21960;BME280;11144;43.030;25.108;2022-12-07T04:17:43;99290.19;;;6.57;100.00
21960;BME280;11144;43.030;25.108;2022-12-07T04:19:19;99301.38;;;6.67;100.00
21960;BME280;11144;43.030;25.108;2022-12-07T04:20:53;99296.19;;;6.64;100.00
21960;BME280;11144;43.030;25.108;2022-12-07T04:22:27;99290.34;;;6.51;100.00
21960;BME280;11144;43.030;25.108;2022-12-07T04:24:00;99293.84;;;6.50;100.00
21960;BME280;11144;43.030;25.108;2022-12-07T04:25:33;99291.19;;;6.52;100.00
21960;BME280;11144;43.030;25.108;2022-12-07T04:27:06;99282.50;;;6.50;100.00
21960;BME280;11144;43.030;25.108;2022-12-07T04:28:40;99278.09;;;6.50;100.00
21960;BME280;11144;43.030;25.108;2022-12-07T04:30:14;99272.97;;;6.44;100.00
21960;BME280;11144;43.030;25.108;2022-12-07T04:31:47;99283.66;;;6.35;100.00
21960;BME280;11144;43.030;25.108;2022-12-07T04:33:20;99279.31;;;6.34;100.00
21960;BME280;11144;43.030;25.108;2022-12-07T04:34:56;99276.72;;;6.31;100.00
21960;BME280;11144;43.030;25.108;2022-12-07T04:36:30;99266.38;;;6.25;100.00
21960;BME280;11144;43.030;25.108;2022-12-07T04:38:04;99276.69;;;6.34;100.00
21960;BME280;11144;43.030;25.108;2022-12-07T04:39:38;99280.16;;;6.36;100.00
21960;BME280;11144;43.030;25.108;2022-12-07T04:41:10;99282.72;;;6.38;100.00
21960;BME280;11144;43.030;25.108;2022-12-07T04:42:44;99285.31;;;6.39;100.00
21960;BME280;11144;43.030;25.108;2022-12-07T04:44:19;99288.81;;;6.40;100.00
21960;BME280;11144;43.030;25.108;2022-12-07T04:45:53;99280.88;;;6.43;100.00
21960;BME280;11144;43.030;25.108;2022-12-07T04:47:25;99273.81;;;6.45;100.00
21960;BME280;11144;43.030;25.108;2022-12-07T04:48:59;99269.44;;;6.45;100.00
21960;BME280;11144;43.030;25.108;2022-12-07T04:50:35;99285.19;;;6.47;100.00
21960;BME280;11144;43.030;25.108;2022-12-07T04:52:16;99272.09;;;6.44;100.00
21960;BME280;11144;43.030;25.108;2022-12-07T04:53:50;99263.41;;;6.42;100.00
21960;BME280;11144;43.030;25.108;2022-12-07T04:55:22;99260.88;;;6.37;100.00
21960;BME280;11144;43.030;25.108;2022-12-07T04:56:57;99254.13;;;6.24;100.00
21960;BME280;11144;43.030;25.108;2022-12-07T04:58:30;99260.13;;;6.31;100.00
21960;BME280;11144;43.030;25.108;2022-12-07T05:00:05;99260.03;;;6.34;100.00
21960;BME280;11144;43.030;25.108;2022-12-07T05:01:38;99255.72;;;6.31;100.00
21960;BME280;11144;43.030;25.108;2022-12-07T05:03:12;99255.72;;;6.31;100.00
21960;BME280;11144;43.030;25.108;2022-12-07T05:04:45;99257.44;;;6.32;100.00
21960;BME280;11144;43.030;25.108;2022-12-07T05:06:21;99256.59;;;6.32;100.00
21960;BME280;11144;43.030;25.108;2022-12-07T05:07:53;99263.56;;;6.33;100.00
21960;BME280;11144;43.030;25.108;2022-12-07T05:09:26;99260.97;;;6.31;100.00
21960;BME280;11144;43.030;25.108;2022-12-07T05:11:00;99254.06;;;6.27;100.00
21960;BME280;11144;43.030;25.108;2022-12-07T05:12:34;99257.44;;;6.32;100.00
21960;BME280;11144;43.030;25.108;2022-12-07T05:14:11;99260.03;;;6.34;100.00
21960;BME280;11144;43.030;25.108;2022-12-07T05:15:46;99260.94;;;6.34;100.00
21960;BME280;11144;43.030;25.108;2022-12-07T05:17:20;99252.16;;;6.35;100.00
21960;BME280;11144;43.030;25.108;2022-12-07T05:18:56;99257.41;;;6.35;100.00
21960;BME280;11144;43.030;25.108;2022-12-07T05:20:29;99257.44;;;6.32;100.00
21960;BME280;11144;43.030;25.108;2022-12-07T05:22:11;99253.09;;;6.31;100.00
21960;BME280;11144;43.030;25.108;2022-12-07T05:23:46;99260.97;;;6.31;100.00
21960;BME280;11144;43.030;25.108;2022-12-07T05:25:19;99260.94;;;6.34;100.00
21960;BME280;11144;43.030;25.108;2022-12-07T05:26:53;99261.72;;;6.38;100.00
21960;BME280;11144;43.030;25.108;2022-12-07T05:28:26;99262.53;;;6.41;100.00
21960;BME280;11144;43.030;25.108;2022-12-07T05:30:00;99260.66;;;6.46;100.00
21960;BME280;11144;43.030;25.108;2022-12-07T05:31:34;99264.13;;;6.48;100.00
21960;BME280;11144;43.030;25.108;2022-12-07T05:33:08;99265.91;;;6.46;100.00
21960;BME280;11144;43.030;25.108;2022-12-07T05:34:41;99276.56;;;6.40;100.00
21960;BME280;11144;43.030;25.108;2022-12-07T05:36:14;99269.91;;;6.23;100.00
21960;BME280;11144;43.030;25.108;2022-12-07T05:37:49;99263.69;;;6.27;100.00
21960;BME280;11144;43.030;25.108;2022-12-07T05:39:23;99259.25;;;6.30;100.00
21960;BME280;11144;43.030;25.108;2022-12-07T05:41:00;99266.13;;;6.37;100.00
21960;BME280;11144;43.030;25.108;2022-12-07T05:42:34;99262.53;;;6.41;100.00
21960;BME280;11144;43.030;25.108;2022-12-07T05:44:06;99259.91;;;6.41;100.00
21960;BME280;11144;43.030;25.108;2022-12-07T05:45:40;99255.47;;;6.43;100.00
21960;BME280;11144;43.030;25.108;2022-12-07T05:47:15;99256.38;;;6.42;100.00
21960;BME280;11144;43.030;25.108;2022-12-07T05:48:49;99258.16;;;6.42;100.00
21960;BME280;11144;43.030;25.108;2022-12-07T05:50:22;99253.81;;;6.39;100.00
21960;BME280;11144;43.030;25.108;2022-12-07T05:52:04;99259.97;;;6.38;100.00
21960;BME280;11144;43.030;25.108;2022-12-07T05:53:39;99259.16;;;6.36;100.00
21960;BME280;11144;43.030;25.108;2022-12-07T05:55:13;99255.72;;;6.31;100.00
21960;BME280;11144;43.030;25.108;2022-12-07T05:56:46;99259.31;;;6.27;100.00
21960;BME280;11144;43.030;25.108;2022-12-07T05:58:20;99250.63;;;6.25;100.00
21960;BME280;11144;43.030;25.108;2022-12-07T06:00:12;99241.91;;;6.23;100.00
21960;BME280;11144;43.030;25.108;2022-12-07T06:01:46;99240.97;;;6.26;100.00
21960;BME280;11144;43.030;25.108;2022-12-07T06:03:19;99237.50;;;6.25;100.00
21960;BME280;11144;43.030;25.108;2022-12-07T06:04:53;99233.94;;;6.28;100.00
21960;BME280;11144;43.030;25.108;2022-12-07T06:06:27;99223.63;;;6.17;100.00
21960;BME280;11144;43.030;25.108;2022-12-07T06:07:59;99242.59;;;6.31;100.00
21960;BME280;11144;43.030;25.108;2022-12-07T06:09:38;99244.28;;;6.34;100.00
21960;BME280;11144;43.030;25.108;2022-12-07T06:11:11;99241.69;;;6.32;100.00
21960;BME280;11144;43.030;25.108;2022-12-07T06:13:02;99231.19;;;6.32;100.00
21960;BME280;11144;43.030;25.108;2022-12-07T06:14:36;99227.81;;;6.27;100.00
21960;BME280;11144;43.030;25.108;2022-12-07T06:16:10;99225.00;;;6.36;100.00
21960;BME280;11144;43.030;25.108;2022-12-07T06:17:43;99240.69;;;6.39;100.00
21960;BME280;11144;43.030;25.108;2022-12-07T06:19:17;99235.34;;;6.44;100.00
21960;BME280;11144;43.030;25.108;2022-12-07T06:20:51;99229.16;;;6.46;100.00
21960;BME280;11144;43.030;25.108;2022-12-07T06:22:24;99244.84;;;6.49;100.00
21960;BME280;11144;43.030;25.108;2022-12-07T06:23:57;99236.00;;;6.53;100.00
21960;BME280;11144;43.030;25.108;2022-12-07T06:25:33;99239.47;;;6.55;100.00
21960;BME280;11144;43.030;25.108;2022-12-07T06:27:08;99240.41;;;6.53;100.00
21960;BME280;11144;43.030;25.108;2022-12-07T06:28:41;99244.88;;;6.48;100.00
21960;BME280;11144;43.030;25.108;2022-12-07T06:30:15;99256.25;;;6.48;100.00
21960;BME280;11144;43.030;25.108;2022-12-07T06:31:48;99254.47;;;6.49;100.00
21960;BME280;11144;43.030;25.108;2022-12-07T06:33:23;99265.88;;;6.49;100.00
21960;BME280;11144;43.030;25.108;2022-12-07T06:34:57;99253.56;;;6.51;100.00
21960;BME280;11144;43.030;25.108;2022-12-07T06:36:30;99263.19;;;6.52;100.00
21960;BME280;11144;43.030;25.108;2022-12-07T06:38:04;99268.19;;;6.63;100.00
21960;BME280;11144;43.030;25.108;2022-12-07T06:39:37;99249.16;;;6.52;100.00
21960;BME280;11144;43.030;25.108;2022-12-07T06:41:12;99274.44;;;6.57;100.00
21960;BME280;11144;43.030;25.108;2022-12-07T06:42:46;99277.97;;;6.56;100.00
21960;BME280;11144;43.030;25.108;2022-12-07T06:44:21;99255.56;;;6.40;100.00
21960;BME280;11144;43.030;25.108;2022-12-07T06:45:55;99274.44;;;6.57;100.00
21960;BME280;11144;43.030;25.108;2022-12-07T06:47:29;99281.34;;;6.61;100.00
21960;BME280;11144;43.030;25.108;2022-12-07T06:49:13;99270.78;;;6.64;100.00
21960;BME280;11144;43.030;25.108;2022-12-07T06:50:47;99277.91;;;6.59;100.00
21960;BME280;11144;43.030;25.108;2022-12-07T06:52:26;99269.13;;;6.60;100.00
21960;BME280;11144;43.030;25.108;2022-12-07T06:53:59;99283.03;;;6.65;100.00
21960;BME280;11144;43.030;25.108;2022-12-07T06:55:33;99273.31;;;6.70;100.00
21960;BME280;11144;43.030;25.108;2022-12-07T06:57:08;99270.63;;;6.73;100.00
21960;BME280;11144;43.030;25.108;2022-12-07T06:58:41;99261.78;;;6.77;100.00
21960;BME280;11144;43.030;25.108;2022-12-07T07:00:15;99267.81;;;6.81;100.00
21960;BME280;11144;43.030;25.108;2022-12-07T07:01:53;99264.41;;;6.77;100.00
21960;BME280;11144;43.030;25.108;2022-12-07T07:03:27;99258.16;;;6.81;100.00
21960;BME280;11144;43.030;25.108;2022-12-07T07:05:01;99256.25;;;6.89;100.00
21960;BME280;11144;43.030;25.108;2022-12-07T07:06:34;99270.13;;;6.94;100.00
21960;BME280;11144;43.030;25.108;2022-12-07T07:08:08;99252.50;;;6.99;100.00
21960;BME280;11144;43.030;25.108;2022-12-07T07:09:57;99268.41;;;6.93;100.00
21960;BME280;11144;43.030;25.108;2022-12-07T07:11:31;99265.09;;;6.85;100.00
21960;BME280;11144;43.030;25.108;2022-12-07T07:13:07;99258.16;;;6.81;100.00
21960;BME280;11144;43.030;25.108;2022-12-07T07:14:40;99259.84;;;6.85;100.00
21960;BME280;11144;43.030;25.108;2022-12-07T07:16:15;99261.50;;;6.89;100.00
21960;BME280;11144;43.030;25.108;2022-12-07T07:17:49;99255.38;;;6.87;100.00
21960;BME280;11144;43.030;25.108;2022-12-07T07:19:22;99257.91;;;6.93;100.00
21960;BME280;11144;43.030;25.108;2022-12-07T07:20:56;99259.47;;;7.00;100.00
21960;BME280;11144;43.030;25.108;2022-12-07T07:22:30;99257.66;;;7.02;100.00
21960;BME280;11144;43.030;25.108;2022-12-07T07:24:04;99266.47;;;7.01;100.00
21960;BME280;11144;43.030;25.108;2022-12-07T07:25:38;99271.75;;;7.00;100.00
21960;BME280;11144;43.030;25.108;2022-12-07T07:27:12;99271.72;;;7.01;100.00
21960;BME280;11144;43.030;25.108;2022-12-07T07:28:47;99269.94;;;7.03;100.00
21960;BME280;11144;43.030;25.108;2022-12-07T07:30:21;99273.31;;;7.08;100.00
21960;BME280;11144;43.030;25.108;2022-12-07T07:31:54;99272.41;;;7.09;100.00
21960;BME280;11144;43.030;25.108;2022-12-07T07:33:34;99268.81;;;7.13;100.00
21960;BME280;11144;43.030;25.108;2022-12-07T07:35:08;99271.53;;;7.11;100.00
21960;BME280;11144;43.030;25.108;2022-12-07T07:36:41;99260.41;;;6.99;100.00
21960;BME280;11144;43.030;25.108;2022-12-07T07:38:15;99270.00;;;7.00;100.00
21960;BME280;11144;43.030;25.108;2022-12-07T07:39:48;99268.13;;;7.05;100.00
21960;BME280;11144;43.030;25.108;2022-12-07T07:41:22;99268.28;;;6.99;100.00
21960;BME280;11144;43.030;25.108;2022-12-07T07:42:56;99270.00;;;7.00;100.00
21960;BME280;11144;43.030;25.108;2022-12-07T07:44:30;99268.00;;;7.12;100.00
21960;BME280;11144;43.030;25.108;2022-12-07T07:46:06;99259.00;;;7.22;100.00
21960;BME280;11144;43.030;25.108;2022-12-07T07:47:40;99263.97;;;7.34;100.00
21960;BME280;11144;43.030;25.108;2022-12-07T07:49:14;99264.56;;;7.45;100.00
21960;BME280;11144;43.030;25.108;2022-12-07T07:50:47;99265.16;;;7.56;100.00
21960;BME280;11144;43.030;25.108;2022-12-07T07:52:20;99268.47;;;7.64;100.00
21960;BME280;11144;43.030;25.108;2022-12-07T07:53:54;99267.41;;;7.71;100.00
21960;BME280;11144;43.030;25.108;2022-12-07T07:55:28;99264.63;;;7.77;100.00
21960;BME280;11144;43.030;25.108;2022-12-07T07:57:01;99262.81;;;7.79;100.00
21960;BME280;11144;43.030;25.108;2022-12-07T07:58:35;99268.00;;;7.82;100.00
21960;BME280;11144;43.030;25.108;2022-12-07T08:00:14;99271.69;;;7.75;100.00
21960;BME280;11144;43.030;25.108;2022-12-07T08:01:48;99271.63;;;7.78;100.00
21960;BME280;11144;43.030;25.108;2022-12-07T08:03:22;99261.22;;;7.72;100.00
21960;BME280;11144;43.030;25.108;2022-12-07T08:04:55;99274.28;;;7.76;100.00
21960;BME280;11144;43.030;25.108;2022-12-07T08:06:29;99268.16;;;7.76;100.00
21960;BME280;11144;43.030;25.108;2022-12-07T08:08:03;99273.47;;;7.73;100.00
21960;BME280;11144;43.030;25.108;2022-12-07T08:09:37;99281.31;;;7.76;100.00
21960;BME280;11144;43.030;25.108;2022-12-07T08:11:11;99276.22;;;7.70;100.00
21960;BME280;11144;43.030;25.108;2022-12-07T08:12:45;99274.44;;;7.70;100.00
21960;BME280;11144;43.030;25.108;2022-12-07T08:14:36;99256.16;;;7.66;100.00
21960;BME280;11144;43.030;25.108;2022-12-07T08:16:12;99271.69;;;7.75;100.00
21960;BME280;11144;43.030;25.108;2022-12-07T08:17:47;99272.53;;;7.77;100.00
21960;BME280;11144;43.030;25.108;2022-12-07T08:19:20;99278.38;;;7.88;100.00
21960;BME280;11144;43.030;25.108;2022-12-07T08:20:58;99274.00;;;7.87;100.00
21960;BME280;11144;43.030;25.108;2022-12-07T08:22:32;99267.00;;;7.86;100.00